Time;durP1;ratioP1;P1;durP2;ratioP2;P2;SDS_P1;SDS_P2;PMS_P1;PMS_P2;Temp;Humidity;BMP_temperature;BMP_pressure;BME280_temperature;BME280_humidity;BME280_pressure;Samples;Min_cycle;Max_cycle;Signal;HPM_P1;HPM_P2
2023/03/30 00:02:02;;;;;;;;;;;;;;;10.80;100.00;100313.13;5064161;28;19982;-77
2023/03/30 00:04:28;;;;;;;;;;;;;;;10.64;100.00;100329.38;5065573;28;19932;-76
2023/03/30 00:06:53;;;;;;;;;;;;;;;10.39;100.00;100327.03;5063632;28;19927;-77
2023/03/30 00:09:19;;;;;;;;;;;;;;;10.37;100.00;100315.78;5066427;28;19924;-77
2023/03/30 00:11:44;;;;;;;;;;;;;;;10.39;100.00;100313.84;5065733;28;19928;-77
2023/03/30 00:14:11;;;;;;;;;;;;;;;10.48;100.00;100318.41;5067263;28;19921;-76
2023/03/30 00:16:36;;;;;;;;;;;;;;;10.35;100.00;100322.97;5064037;28;19964;-77
2023/03/30 00:19:01;;;;;;;;;;;;;;;10.33;100.00;100314.34;5066857;28;20328;-77
2023/03/30 00:21:27;;;;;;;;;;;;;;;10.41;100.00;100317.22;5064349;28;19929;-76
2023/03/30 00:23:52;;;;;;;;;;;;;;;10.50;100.00;100312.00;5065500;28;19925;-77
2023/03/30 00:26:17;;;;;;;;;;;;;;;10.56;100.00;100321.25;5062891;28;19925;-76
2023/03/30 00:28:43;;;;;;;;;;;;;;;10.49;100.00;100315.63;5048072;28;20058;-77
2023/03/30 00:31:10;;;;;;;;;;;;;;;10.48;100.00;100323.69;5061423;28;19921;-77
2023/03/30 00:33:35;;;;;;;;;;;;;;;10.41;100.00;100322.50;5066958;28;19942;-77
2023/03/30 00:36:02;;;;;;;;;;;;;;;10.30;100.00;100317.22;5063272;28;19927;-77
2023/03/30 00:38:28;;;;;;;;;;;;;;;10.31;100.00;100311.00;5065842;28;19925;-77
2023/03/30 00:40:57;;;;;;;;;;;;;;;10.18;100.00;100311.97;5064958;28;19927;-76
2023/03/30 00:43:24;;;;;;;;;;;;;;;10.12;100.00;100315.06;5047507;28;19924;-77
2023/03/30 00:45:50;;;;;;;;;;;;;;;10.00;100.00;100331.84;5065185;28;19927;-76
2023/03/30 00:48:22;;;;;;;;;;;;;;;9.87;100.00;100325.84;5063193;28;19942;-76
2023/03/30 00:50:50;;;;;;;;;;;;;;;9.77;100.00;100338.06;5044629;28;20365;-77
2023/03/30 00:53:19;;;;;;;;;;;;;;;9.63;100.00;100336.50;5065331;28;19955;-77
2023/03/30 00:55:46;;;;;;;;;;;;;;;9.58;100.00;100327.25;5063437;28;20029;-78
2023/03/30 00:58:12;;;;;;;;;;;;;;;9.55;100.00;100319.59;5063849;28;19931;-75
2023/03/30 01:00:39;;;;;;;;;;;;;;;9.65;100.00;100324.06;5061118;28;19921;-75
2023/03/30 01:03:11;;;;;;;;;;;;;;;9.59;100.00;100319.25;5063559;28;19975;-75
2023/03/30 01:05:38;;;;;;;;;;;;;;;9.67;100.00;100311.56;5061425;28;20573;-76
2023/03/30 01:08:06;;;;;;;;;;;;;;;9.76;100.00;100312.69;5065373;28;19926;-76
2023/03/30 01:10:32;;;;;;;;;;;;;;;9.82;100.00;100314.84;5062400;28;19920;-76
2023/03/30 01:12:58;;;;;;;;;;;;;;;9.95;100.00;100305.00;5063986;28;20019;-77
2023/03/30 01:15:26;;;;;;;;;;;;;;;10.03;100.00;100299.13;5064734;28;20438;-76
2023/03/30 01:18:05;;;;;;;;;;;;;;;10.13;100.00;100302.72;5064199;28;20291;-76
2023/03/30 01:20:46;;;;;;;;;;;;;;;10.23;100.00;100296.63;5065822;28;19947;-75
2023/03/30 01:23:18;;;;;;;;;;;;;;;10.26;100.00;100293.72;5044877;28;20414;-75
2023/03/30 01:25:49;;;;;;;;;;;;;;;10.33;100.00;100288.78;5044776;28;19946;-75
2023/03/30 01:28:27;;;;;;;;;;;;;;;10.35;100.00;100276.31;5043253;28;19927;-75
2023/03/30 01:30:55;;;;;;;;;;;;;;;10.42;100.00;100287.22;5061395;28;20269;-76
2023/03/30 01:33:50;;;;;;;;;;;;;;;10.35;100.00;100278.13;5060703;28;19924;-76
2023/03/30 01:36:24;;;;;;;;;;;;;;;10.41;100.00;100269.72;5059547;28;20011;-74
2023/03/30 01:38:56;;;;;;;;;;;;;;;10.40;100.00;100257.47;5060719;28;20299;-75
2023/03/30 01:41:38;;;;;;;;;;;;;;;10.49;100.00;100262.00;5060349;28;20280;-76
2023/03/30 01:44:19;;;;;;;;;;;;;;;10.43;100.00;100258.06;5043087;28;19928;-76
2023/03/30 01:46:49;;;;;;;;;;;;;;;10.46;100.00;100262.25;5062790;28;20396;-74
2023/03/30 01:49:21;;;;;;;;;;;;;;;10.51;100.00;100270.63;5045724;28;20296;-74
2023/03/30 01:51:59;;;;;;;;;;;;;;;10.49;100.00;100272.56;5043048;28;19955;-76
2023/03/30 01:54:29;;;;;;;;;;;;;;;10.49;100.00;100268.13;5063425;28;20042;-75
2023/03/30 01:57:01;;;;;;;;;;;;;;;10.46;100.00;100271.03;5064685;28;19928;-76
2023/03/30 01:59:36;;;;;;;;;;;;;;;10.50;100.00;100274.22;5044871;28;19927;-75
2023/03/30 02:02:03;;;;;;;;;;;;;;;10.44;100.00;100269.47;5048690;28;19921;-76
2023/03/30 02:04:32;;;;;;;;;;;;;;;10.26;100.00;100267.34;5060292;28;19981;-75
2023/03/30 02:07:05;;;;;;;;;;;;;;;10.22;100.00;100265.94;5047399;28;19924;-75
2023/03/30 02:09:31;;;;;;;;;;;;;;;9.90;100.00;100269.41;5043723;28;19916;-79
2023/03/30 02:11:57;;;;;;;;;;;;;;;9.71;100.00;100270.03;5065246;28;20346;-77
2023/03/30 02:14:26;;;;;;;;;;;;;;;9.59;100.00;100261.28;5061595;28;19924;-79
2023/03/30 02:16:59;;;;;;;;;;;;;;;9.58;100.00;100258.75;5031350;28;19967;-78
2023/03/30 02:19:26;;;;;;;;;;;;;;;9.68;100.00;100260.56;5042852;28;20326;-77
2023/03/30 02:21:52;;;;;;;;;;;;;;;9.65;100.00;100257.31;5064063;28;19921;-78
2023/03/30 02:24:21;;;;;;;;;;;;;;;9.73;100.00;100252.28;5061839;28;20418;-77
2023/03/30 02:26:48;;;;;;;;;;;;;;;9.80;100.00;100256.13;5044314;28;19959;-77
2023/03/30 02:29:14;;;;;;;;;;;;;;;9.74;100.00;100248.69;5062153;28;19928;-78
2023/03/30 02:31:40;;;;;;;;;;;;;;;9.83;100.00;100248.81;5064735;28;19921;-78
2023/03/30 02:34:11;;;;;;;;;;;;;;;9.91;100.00;100256.09;5039871;28;19927;-77
2023/03/30 02:36:52;;;;;;;;;;;;;;;9.84;100.00;100254.91;5031650;28;19987;-78
2023/03/30 02:39:36;;;;;;;;;;;;;;;9.90;100.00;100254.41;5045507;28;19974;-77
2023/03/30 02:42:01;;;;;;;;;;;;;;;9.95;100.00;100252.28;5064257;28;19928;-76
2023/03/30 02:44:46;;;;;;;;;;;;;;;10.01;100.00;100254.44;5059260;28;19925;-75
2023/03/30 02:47:38;;;;;;;;;;;;;;;9.98;100.00;100246.75;5043866;28;19921;-76
2023/03/30 02:50:22;;;;;;;;;;;;;;;9.98;100.00;100253.81;5041915;28;19927;-77
2023/03/30 02:53:01;;;;;;;;;;;;;;;10.00;100.00;100250.13;5044877;28;19972;-76
2023/03/30 02:55:44;;;;;;;;;;;;;;;10.05;100.00;100250.59;5031160;28;20308;-77
2023/03/30 02:58:45;;;;;;;;;;;;;;;9.95;100.00;100249.66;5064343;28;20260;-76
2023/03/30 03:01:37;;;;;;;;;;;;;;;10.09;100.00;100252.00;5043669;28;19963;-76
2023/03/30 03:04:15;;;;;;;;;;;;;;;10.13;100.00;100247.34;5039296;28;19959;-76
2023/03/30 03:07:01;;;;;;;;;;;;;;;10.17;100.00;100246.16;5051115;28;20015;-75
2023/03/30 03:09:28;;;;;;;;;;;;;;;10.19;100.00;100239.78;5046893;28;19979;-76
2023/03/30 03:11:54;;;;;;;;;;;;;;;10.16;100.00;100237.41;5048759;28;19920;-75
2023/03/30 03:14:20;;;;;;;;;;;;;;;10.22;100.00;100239.53;5047830;28;19928;-75
2023/03/30 03:16:45;;;;;;;;;;;;;;;10.24;100.00;100237.63;5067398;28;19924;-75
2023/03/30 03:19:13;;;;;;;;;;;;;;;10.14;100.00;100228.72;5051073;28;19978;-76
2023/03/30 03:21:39;;;;;;;;;;;;;;;10.19;100.00;100216.03;5049970;28;19927;-76
2023/03/30 03:24:05;;;;;;;;;;;;;;;10.12;100.00;100217.50;5049660;28;19921;-76
2023/03/30 03:26:57;;;;;;;;;;;;;;;10.23;100.00;100212.22;5064981;28;19955;-75
2023/03/30 03:29:23;;;;;;;;;;;;;;;10.18;100.00;100201.22;5047773;28;19924;-75
2023/03/30 03:31:48;;;;;;;;;;;;;;;10.26;100.00;100198.75;5048982;28;19921;-73
2023/03/30 03:34:16;;;;;;;;;;;;;;;10.27;100.00;100200.44;5046442;28;19928;-77
2023/03/30 03:37:02;;;;;;;;;;;;;;;10.30;100.00;100203.81;5050087;28;20062;-75
2023/03/30 03:39:30;;;;;;;;;;;;;;;10.16;100.00;100205.75;5050199;28;19924;-78
2023/03/30 03:42:04;;;;;;;;;;;;;;;10.09;100.00;100207.19;5044237;28;19927;-76
2023/03/30 03:44:29;;;;;;;;;;;;;;;10.13;100.00;100213.88;5049445;28;20023;-75
2023/03/30 03:46:55;;;;;;;;;;;;;;;10.17;100.00;100215.34;5044410;28;19924;-76
2023/03/30 03:49:20;;;;;;;;;;;;;;;10.18;100.00;100221.47;5047901;28;19924;-76
2023/03/30 03:51:46;;;;;;;;;;;;;;;10.20;100.00;100215.09;5064770;28;20269;-76
2023/03/30 03:54:11;;;;;;;;;;;;;;;10.16;100.00;100210.16;5066991;28;19923;-77
2023/03/30 03:56:38;;;;;;;;;;;;;;;10.10;100.00;100214.13;5046622;28;19926;-76
2023/03/30 03:59:03;;;;;;;;;;;;;;;9.90;100.00;100211.41;5045221;28;19932;-78
2023/03/30 04:01:29;;;;;;;;;;;;;;;9.82;100.00;100214.66;5046878;28;19978;-76
2023/03/30 04:03:55;;;;;;;;;;;;;;;9.73;100.00;100218.84;5046635;28;19920;-74
2023/03/30 04:06:21;;;;;;;;;;;;;;;9.86;100.00;100226.63;5063993;28;19932;-75
2023/03/30 04:08:46;;;;;;;;;;;;;;;9.97;100.00;100229.25;5066308;28;19967;-75
2023/03/30 04:11:32;;;;;;;;;;;;;;;10.03;100.00;100215.56;5066642;28;20402;-76
2023/03/30 04:14:26;;;;;;;;;;;;;;;9.97;100.00;100218.72;5050997;28;19920;-78
2023/03/30 04:17:05;;;;;;;;;;;;;;;10.06;100.00;100210.06;5061931;28;19948;-77
2023/03/30 04:19:38;;;;;;;;;;;;;;;10.11;100.00;100225.53;5061506;28;19935;-78
2023/03/30 04:22:34;;;;;;;;;;;;;;;10.17;100.00;100214.50;5024643;28;19968;-77
2023/03/30 04:25:27;;;;;;;;;;;;;;;10.21;100.00;100216.78;5066324;28;19920;-77
2023/03/30 04:28:20;;;;;;;;;;;;;;;10.25;100.00;100212.91;5028145;28;20326;-76
2023/03/30 04:31:21;;;;;;;;;;;;;;;10.27;100.00;100197.81;4983654;28;19930;-76
2023/03/30 04:34:05;;;;;;;;;;;;;;;10.33;100.00;100192.97;5055213;28;19928;-77
2023/03/30 04:36:30;;;;;;;;;;;;;;;10.24;100.00;100195.44;5063974;28;20384;-77
2023/03/30 04:39:17;;;;;;;;;;;;;;;10.20;100.00;100193.97;5048113;28;19966;-77
2023/03/30 04:41:45;;;;;;;;;;;;;;;10.23;100.00;100188.47;5065740;28;19927;-77
2023/03/30 04:44:23;;;;;;;;;;;;;;;10.22;100.00;100192.06;5044437;28;19925;-75
2023/03/30 04:47:15;;;;;;;;;;;;;;;10.31;100.00;100195.75;5043729;28;20007;-76
2023/03/30 04:50:01;;;;;;;;;;;;;;;10.30;100.00;100201.16;5054683;28;19927;-76
2023/03/30 04:52:45;;;;;;;;;;;;;;;10.30;100.00;100195.88;5062840;28;19979;-76
2023/03/30 04:55:29;;;;;;;;;;;;;;;10.31;100.00;100201.00;5067620;28;19989;-76
2023/03/30 04:58:10;;;;;;;;;;;;;;;10.25;100.00;100191.81;5041405;28;19930;-75
2023/03/30 05:00:59;;;;;;;;;;;;;;;10.29;100.00;100186.28;5045837;28;19929;-77
2023/03/30 05:03:43;;;;;;;;;;;;;;;10.35;100.00;100191.06;5066771;28;20011;-81
2023/03/30 05:06:24;;;;;;;;;;;;;;;10.35;100.00;100186.63;5046607;28;19970;-78
2023/03/30 05:09:10;;;;;;;;;;;;;;;10.40;100.00;100173.91;5033827;28;19924;-80
2023/03/30 05:11:55;;;;;;;;;;;;;;;10.50;100.00;100173.97;5062475;28;19927;-80
2023/03/30 05:14:33;;;;;;;;;;;;;;;10.52;100.00;100177.31;5048369;28;19920;-81
2023/03/30 05:17:19;;;;;;;;;;;;;;;10.56;100.00;100178.72;5046556;28;19925;-84
2023/03/30 05:19:58;;;;;;;;;;;;;;;10.53;100.00;100184.28;5047408;28;20014;-82
2023/03/30 05:22:59;;;;;;;;;;;;;;;10.52;100.00;100196.63;5048963;28;19928;-78
2023/03/30 05:25:47;;;;;;;;;;;;;;;10.53;100.00;100205.38;5005722;28;19921;-80
2023/03/30 05:28:48;;;;;;;;;;;;;;;10.52;100.00;100198.44;4953654;28;19926;-80
2023/03/30 05:31:48;;;;;;;;;;;;;;;10.47;100.00;100216.44;5065144;28;19932;-81
2023/03/30 05:34:48;;;;;;;;;;;;;;;10.50;100.00;100213.53;5018866;28;19921;-81
2023/03/30 05:37:32;;;;;;;;;;;;;;;10.55;100.00;100196.38;5061724;28;19945;-79
2023/03/30 05:40:17;;;;;;;;;;;;;;;10.62;100.00;100209.91;5040954;28;19928;-78
2023/03/30 05:43:08;;;;;;;;;;;;;;;10.66;100.00;100206.06;5038379;28;19921;-77
2023/03/30 05:45:56;;;;;;;;;;;;;;;10.70;100.00;100220.66;5061444;28;20011;-77
2023/03/30 05:48:40;;;;;;;;;;;;;;;10.78;100.00;100226.13;5062015;28;19927;-78
2023/03/30 05:51:26;;;;;;;;;;;;;;;10.74;100.00;100213.31;5061246;28;19927;-77
2023/03/30 05:54:12;;;;;;;;;;;;;;;10.77;100.00;100208.63;5044758;28;19970;-80
2023/03/30 05:57:01;;;;;;;;;;;;;;;10.79;100.00;100206.69;5026276;28;20074;-80
2023/03/30 05:59:33;;;;;;;;;;;;;;;10.78;100.00;100215.56;5032516;28;19920;-80
2023/03/30 06:02:14;;;;;;;;;;;;;;;10.73;100.00;100217.75;5067062;28;19917;-78
2023/03/30 06:04:39;;;;;;;;;;;;;;;10.75;100.00;100221.13;5032835;28;19971;-81
2023/03/30 06:07:06;;;;;;;;;;;;;;;10.77;100.00;100229.75;5042686;28;19956;-82
2023/03/30 06:09:32;;;;;;;;;;;;;;;10.64;100.00;100234.38;5046131;28;19925;-82
2023/03/30 06:12:01;;;;;;;;;;;;;;;10.64;100.00;100223.81;5022648;28;19944;-83
2023/03/30 06:14:29;;;;;;;;;;;;;;;10.66;100.00;100222.69;5061236;28;20027;-81
2023/03/30 06:17:14;;;;;;;;;;;;;;;10.69;100.00;100218.97;5041734;28;19921;-81
2023/03/30 06:19:41;;;;;;;;;;;;;;;10.77;100.00;100213.06;5046972;28;19947;-81
2023/03/30 06:22:06;;;;;;;;;;;;;;;10.78;100.00;100210.28;5046773;28;19920;-80
2023/03/30 06:24:41;;;;;;;;;;;;;;;10.84;100.00;100215.06;5048486;28;19938;-80
2023/03/30 06:27:07;;;;;;;;;;;;;;;10.96;100.00;100208.75;5043396;28;19928;-80
2023/03/30 06:29:32;;;;;;;;;;;;;;;11.03;100.00;100209.91;5044037;28;20371;-80
2023/03/30 06:31:58;;;;;;;;;;;;;;;11.06;100.00;100220.22;5048966;28;19927;-82
2023/03/30 06:34:42;;;;;;;;;;;;;;;11.09;100.00;100222.59;5059136;28;19924;-81
2023/03/30 06:37:08;;;;;;;;;;;;;;;11.11;100.00;100216.34;5053721;28;19925;-81
2023/03/30 06:39:36;;;;;;;;;;;;;;;10.99;100.00;100218.22;5045885;28;19916;-80
2023/03/30 06:42:03;;;;;;;;;;;;;;;10.91;100.00;100221.50;5047766;28;19932;-80
2023/03/30 06:44:48;;;;;;;;;;;;;;;10.90;100.00;100230.38;5047248;28;20394;-80
2023/03/30 06:47:14;;;;;;;;;;;;;;;10.96;100.00;100221.94;5050097;28;19920;-81
2023/03/30 06:49:40;;;;;;;;;;;;;;;11.01;100.00;100221.59;5031951;28;20011;-80
2023/03/30 06:52:22;;;;;;;;;;;;;;;11.03;100.00;100215.19;5049972;28;19924;-80
2023/03/30 06:54:48;;;;;;;;;;;;;;;11.08;100.00;100218.28;5046798;28;20292;-80
2023/03/30 06:57:13;;;;;;;;;;;;;;;11.12;100.00;100223.31;5067665;28;19951;-81
2023/03/30 06:59:38;;;;;;;;;;;;;;;11.13;100.00;100232.91;5034750;28;20352;-80
2023/03/30 07:02:19;;;;;;;;;;;;;;;11.15;100.00;100231.81;5064882;28;20345;-81
2023/03/30 07:04:53;;;;;;;;;;;;;;;11.19;100.00;100235.03;5066729;28;20295;-80
2023/03/30 07:07:36;;;;;;;;;;;;;;;11.21;100.00;100241.00;5068204;28;19944;-82
2023/03/30 07:10:09;;;;;;;;;;;;;;;11.22;100.00;100229.47;5049652;28;19921;-81
2023/03/30 07:12:35;;;;;;;;;;;;;;;11.19;100.00;100224.47;5029491;28;19985;-81
2023/03/30 07:15:01;;;;;;;;;;;;;;;11.19;100.00;100216.56;5049139;28;20007;-80
2023/03/30 07:17:26;;;;;;;;;;;;;;;11.21;100.00;100222.53;5043244;28;20043;-81
2023/03/30 07:19:53;;;;;;;;;;;;;;;11.19;100.00;100227.91;5036376;28;19920;-80
2023/03/30 07:22:18;;;;;;;;;;;;;;;11.18;100.00;100226.28;5045828;28;20027;-81
2023/03/30 07:24:43;;;;;;;;;;;;;;;11.19;100.00;100221.84;5067723;28;19920;-80
2023/03/30 07:27:09;;;;;;;;;;;;;;;11.27;100.00;100227.28;5046044;28;20023;-80
2023/03/30 07:29:36;;;;;;;;;;;;;;;11.25;100.00;100223.97;5046848;28;19982;-80
2023/03/30 07:32:02;;;;;;;;;;;;;;;11.32;100.00;100230.38;5046783;28;20368;-81
2023/03/30 07:34:28;;;;;;;;;;;;;;;11.37;100.00;100220.22;5048533;28;19935;-81
2023/03/30 07:36:56;;;;;;;;;;;;;;;11.45;100.00;100225.72;5046204;28;20206;-81
2023/03/30 07:39:25;;;;;;;;;;;;;;;11.41;100.00;100224.31;5041565;28;19946;-81
2023/03/30 07:41:50;;;;;;;;;;;;;;;11.44;100.00;100226.66;5050247;28;20392;-81
2023/03/30 07:44:17;;;;;;;;;;;;;;;11.33;100.00;100234.69;5045353;28;20400;-81
2023/03/30 07:46:42;;;;;;;;;;;;;;;11.33;100.00;100243.44;5045309;28;20022;-79
2023/03/30 07:49:13;;;;;;;;;;;;;;;11.34;100.00;100250.41;5048552;28;20039;-80
2023/03/30 07:51:39;;;;;;;;;;;;;;;11.30;100.00;100249.00;5042262;28;19991;-80
2023/03/30 07:54:10;;;;;;;;;;;;;;;11.19;100.00;100242.97;5049937;28;19944;-80
2023/03/30 07:56:52;;;;;;;;;;;;;;;11.02;100.00;100234.63;5048098;28;20027;-81
2023/03/30 07:59:18;;;;;;;;;;;;;;;11.05;100.00;100249.41;5066269;28;19963;-81
2023/03/30 08:01:45;;;;;;;;;;;;;;;10.93;100.00;100243.34;5042635;28;19920;-81
2023/03/30 08:04:19;;;;;;;;;;;;;;;10.84;100.00;100235.38;5044325;28;19931;-81
2023/03/30 08:06:46;;;;;;;;;;;;;;;10.96;100.00;100244.88;5046533;28;19927;-81
2023/03/30 08:09:11;;;;;;;;;;;;;;;10.96;100.00;100240.44;5044911;28;20288;-81
2023/03/30 08:11:37;;;;;;;;;;;;;;;11.05;100.00;100244.97;5053844;28;19925;-80
2023/03/30 08:14:03;;;;;;;;;;;;;;;11.12;100.00;100249.72;5063205;28;19928;-81
2023/03/30 08:16:29;;;;;;;;;;;;;;;11.09;100.00;100246.38;5066403;28;20299;-81
2023/03/30 08:18:54;;;;;;;;;;;;;;;11.16;100.00;100246.69;5063460;28;19968;-80
2023/03/30 08:21:20;;;;;;;;;;;;;;;11.09;100.00;100246.38;5062698;28;19971;-81
2023/03/30 08:23:46;;;;;;;;;;;;;;;11.11;100.00;100253.31;5062761;28;19927;-81
2023/03/30 08:26:11;;;;;;;;;;;;;;;11.25;100.00;100250.38;5066617;28;19921;-81
2023/03/30 08:28:37;;;;;;;;;;;;;;;11.35;100.00;100245.97;5066304;28;19920;-81
2023/03/30 08:31:06;;;;;;;;;;;;;;;11.39;100.00;100250.00;5065366;28;19917;-81
2023/03/30 08:33:31;;;;;;;;;;;;;;;11.49;100.00;100253.53;5064117;28;19967;-81
2023/03/30 08:35:57;;;;;;;;;;;;;;;11.56;100.00;100249.41;5065841;28;20383;-82
2023/03/30 08:38:23;;;;;;;;;;;;;;;11.58;100.00;100263.34;5062587;28;20346;-80
2023/03/30 08:40:49;;;;;;;;;;;;;;;11.42;100.00;100273.56;5028193;28;20281;-81
2023/03/30 08:43:17;;;;;;;;;;;;;;;11.56;100.00;100281.13;5044521;28;19923;-82
2023/03/30 08:45:43;;;;;;;;;;;;;;;11.61;100.00;100271.00;5045599;28;20399;-80
2023/03/30 08:48:23;;;;;;;;;;;;;;;11.62;100.00;100259.44;5063413;28;19921;-81
2023/03/30 08:50:56;;;;;;;;;;;;;;;11.70;100.00;100257.00;5047601;28;20428;-81
2023/03/30 08:53:22;;;;;;;;;;;;;;;11.71;100.00;100263.97;5064633;28;20301;-81
2023/03/30 08:55:52;;;;;;;;;;;;;;;11.80;100.00;100267.63;5047006;28;19921;-81
2023/03/30 08:58:22;;;;;;;;;;;;;;;11.82;100.00;100255.97;5043645;28;19947;-80
2023/03/30 09:00:53;;;;;;;;;;;;;;;11.87;100.00;100263.50;5067879;28;20287;-80
2023/03/30 09:03:38;;;;;;;;;;;;;;;11.98;100.00;100263.38;5064333;28;19982;-81
2023/03/30 09:06:08;;;;;;;;;;;;;;;12.05;100.00;100268.97;5065739;28;20292;-81
2023/03/30 09:08:34;;;;;;;;;;;;;;;12.13;100.00;100259.41;5072612;28;19920;-80
2023/03/30 09:11:03;;;;;;;;;;;;;;;12.24;100.00;100253.16;5063935;28;19940;-81
2023/03/30 09:13:33;;;;;;;;;;;;;;;12.35;100.00;100237.16;5066519;28;20334;-84
2023/03/30 09:16:17;;;;;;;;;;;;;;;12.44;100.00;100241.59;5068299;28;20368;-83
2023/03/30 09:18:43;;;;;;;;;;;;;;;12.50;100.00;100246.34;5046206;28;20280;-81
2023/03/30 09:21:10;;;;;;;;;;;;;;;12.58;100.00;100251.81;5067668;28;19926;-82
2023/03/30 09:23:38;;;;;;;;;;;;;;;12.59;100.00;100250.84;5064170;28;19983;-81
2023/03/30 09:26:21;;;;;;;;;;;;;;;12.66;100.00;100251.94;5045432;28;20390;-81
2023/03/30 09:28:59;;;;;;;;;;;;;;;12.69;100.00;100245.53;5065366;28;19968;-82
2023/03/30 09:31:43;;;;;;;;;;;;;;;12.72;100.00;100256.66;5063667;28;19928;-81
2023/03/30 09:34:23;;;;;;;;;;;;;;;12.80;100.00;100263.09;5062418;28;19924;-81
2023/03/30 09:37:02;;;;;;;;;;;;;;;12.85;100.00;100258.19;5063657;28;20399;-79
2023/03/30 09:39:29;;;;;;;;;;;;;;;12.84;100.00;100253.91;5066344;28;19925;-82
2023/03/30 09:42:10;;;;;;;;;;;;;;;12.90;100.00;100256.81;5062388;28;19925;-80
2023/03/30 09:44:39;;;;;;;;;;;;;;;12.99;100.00;100253.31;5056581;28;19928;-80
2023/03/30 09:47:31;;;;;;;;;;;;;;;13.07;100.00;100249.97;5065934;28;20027;-81
2023/03/30 09:50:01;;;;;;;;;;;;;;;13.17;100.00;100244.69;5060935;28;19926;-83
2023/03/30 09:52:30;;;;;;;;;;;;;;;13.22;100.00;100248.56;5064675;28;20746;-82
2023/03/30 09:55:01;;;;;;;;;;;;;;;13.32;100.00;100238.78;5059241;28;20368;-82
2023/03/30 09:57:27;;;;;;;;;;;;;;;13.41;100.00;100224.66;5062259;28;19921;-82
2023/03/30 09:59:54;;;;;;;;;;;;;;;13.43;100.00;100230.66;5067215;28;19920;-81
2023/03/30 10:02:20;;;;;;;;;;;;;;;13.45;100.00;100222.56;5064433;28;19924;-82
2023/03/30 10:04:52;;;;;;;;;;;;;;;13.42;100.00;100207.78;5063821;28;20405;-82
2023/03/30 10:07:22;;;;;;;;;;;;;;;13.50;100.00;100205.22;5046950;28;20036;-83
2023/03/30 10:09:47;;;;;;;;;;;;;;;13.57;100.00;100183.44;5063678;28;19931;-82
2023/03/30 10:12:13;;;;;;;;;;;;;;;13.62;100.00;100178.53;5072591;28;19920;-82
2023/03/30 10:14:39;;;;;;;;;;;;;;;13.73;100.00;100173.00;5071643;28;19921;-83
2023/03/30 10:17:05;;;;;;;;;;;;;;;13.84;100.00;100176.31;5070457;28;20015;-80
2023/03/30 10:19:32;;;;;;;;;;;;;;;13.96;100.00;100171.63;5055335;28;20443;-81
2023/03/30 10:22:03;;;;;;;;;;;;;;;14.03;100.00;100180.66;5034686;28;20001;-81
2023/03/30 10:24:30;;;;;;;;;;;;;;;14.09;100.00;100180.06;5081888;22;19977;-80
2023/03/30 10:27:16;;;;;;;;;;;;;;;14.15;100.00;100179.47;5070467;28;20449;-81
2023/03/30 10:29:45;;;;;;;;;;;;;;;14.25;100.00;100184.72;5072678;28;20411;-81
2023/03/30 10:32:14;;;;;;;;;;;;;;;14.32;100.00;100186.59;5069344;28;19928;-81
2023/03/30 10:34:45;;;;;;;;;;;;;;;14.31;100.00;100190.22;5072297;28;19920;-81
2023/03/30 10:37:15;;;;;;;;;;;;;;;14.28;100.00;100190.56;4717688;28;10000155;-80
2023/03/30 10:39:42;;;;;;;;;;;;;;;14.38;100.00;100200.28;5068611;28;19928;-82
2023/03/30 10:42:10;;;;;;;;;;;;;;;14.32;100.00;100191.06;4368914;28;10000762;-81
2023/03/30 10:44:41;;;;;;;;;;;;;;;14.43;100.00;100180.25;5066113;28;20454;-79
2023/03/30 10:47:14;;;;;;;;;;;;;;;14.55;100.00;100181.69;5064319;28;19929;-82
2023/03/30 10:49:42;;;;;;;;;;;;;;;14.63;100.00;100178.28;5070399;28;19925;-80
2023/03/30 10:52:26;;;;;;;;;;;;;;;14.68;100.00;100184.78;5070630;28;19927;-78
2023/03/30 10:54:56;;;;;;;;;;;;;;;14.71;100.00;100186.31;5068251;28;19921;-80
2023/03/30 10:57:28;;;;;;;;;;;;;;;14.69;100.00;100182.97;5071248;28;19920;-78
2023/03/30 11:00:11;;;;;;;;;;;;;;;14.77;100.00;100184.88;5066682;28;20011;-78
2023/03/30 11:02:44;;;;;;;;;;;;;;;14.84;100.00;100180.63;5068669;28;19975;-78
2023/03/30 11:05:15;;;;;;;;;;;;;;;14.91;100.00;100182.47;5074096;28;19988;-80
2023/03/30 11:07:47;;;;;;;;;;;;;;;14.95;100.00;100167.91;5070092;28;19935;-78
2023/03/30 11:10:27;;;;;;;;;;;;;;;15.00;100.00;100165.63;5069013;28;20361;-81
2023/03/30 11:13:13;;;;;;;;;;;;;;;15.07;100.00;100166.66;5072076;28;20445;-80
2023/03/30 11:15:42;;;;;;;;;;;;;;;14.96;100.00;100158.91;5067196;28;20422;-81
2023/03/30 11:18:08;;;;;;;;;;;;;;;15.01;100.00;100156.66;5068594;28;19974;-81
2023/03/30 11:20:40;;;;;;;;;;;;;;;15.11;100.00;100149.41;5073856;28;20330;-78
2023/03/30 11:23:15;;;;;;;;;;;;;;;15.24;100.00;100145.47;5072346;28;19955;-81
2023/03/30 11:25:50;;;;;;;;;;;;;;;15.37;100.00;100145.88;5085548;28;19927;-82
2023/03/30 11:28:22;;;;;;;;;;;;;;;15.42;100.00;100156.88;5086252;28;19923;-83
2023/03/30 11:30:49;;;;;;;;;;;;;;;15.42;100.00;100164.84;5085679;28;20470;-82
2023/03/30 11:33:21;;;;;;;;;;;;;;;15.44;100.00;100163.69;5091016;28;19970;-82
2023/03/30 11:35:49;;;;;;;;;;;;;;;15.43;100.00;100161.22;5086609;28;19941;-83
2023/03/30 11:38:20;;;;;;;;;;;;;;;15.45;100.00;100156.53;5066672;28;19969;-82
2023/03/30 11:40:46;;;;;;;;;;;;;;;15.57;100.00;100155.31;5091176;28;19920;-81
2023/03/30 11:43:14;;;;;;;;;;;;;;;15.54;100.00;100161.78;5084905;28;19946;-84
2023/03/30 11:45:39;;;;;;;;;;;;;;;15.54;100.00;100167.13;5088985;28;20233;-82
2023/03/30 11:48:05;;;;;;;;;;;;;;;15.54;100.00;100158.28;5069906;28;19931;-82
2023/03/30 11:50:30;;;;;;;;;;;;;;;15.58;100.00;100164.97;5068685;28;19932;-82
2023/03/30 11:53:08;;;;;;;;;;;;;;;15.57;100.00;100157.97;5086324;28;19920;-83
2023/03/30 11:55:36;;;;;;;;;;;;;;;15.59;100.00;100158.66;5089015;28;20371;-84
2023/03/30 11:58:34;;;;;;;;;;;;;;;15.59;100.00;100155.16;5068446;28;20437;-83
2023/03/30 12:01:14;;;;;;;;;;;;;;;15.62;100.00;100155.66;5040446;28;19924;-82
2023/03/30 12:03:42;;;;;;;;;;;;;;;15.58;100.00;100154.31;5088016;28;19931;-82
2023/03/30 12:06:11;;;;;;;;;;;;;;;15.52;100.00;100150.47;5065975;28;20267;-82
2023/03/30 12:08:55;;;;;;;;;;;;;;;15.49;100.00;100144.63;5090721;28;20003;-81
2023/03/30 12:11:38;;;;;;;;;;;;;;;15.48;100.00;100134.97;5094376;28;20316;-82
2023/03/30 12:14:24;;;;;;;;;;;;;;;15.52;100.00;100134.50;5097362;28;19924;-83
2023/03/30 12:16:53;;;;;;;;;;;;;;;15.52;100.00;100139.00;5075316;28;19922;-83
2023/03/30 12:19:29;;;;;;;;;;;;;;;15.52;100.00;100136.34;5099199;28;20268;-82
2023/03/30 12:22:03;;;;;;;;;;;;;;;15.51;100.00;100126.66;5095422;28;19959;-82
2023/03/30 12:24:31;;;;;;;;;;;;;;;15.48;100.00;100121.66;5092043;28;19946;-83
2023/03/30 12:26:57;;;;;;;;;;;;;;;15.41;100.00;100110.00;5090850;28;19968;-82
2023/03/30 12:29:22;;;;;;;;;;;;;;;15.37;100.00;100120.13;5093541;28;19931;-83
2023/03/30 12:31:51;;;;;;;;;;;;;;;15.38;100.00;100111.13;5093615;28;19921;-82
2023/03/30 12:34:17;;;;;;;;;;;;;;;15.41;100.00;100104.69;5089746;28;19966;-83
2023/03/30 12:36:48;;;;;;;;;;;;;;;15.47;100.00;100090.75;5071911;28;19958;-83
2023/03/30 12:39:32;;;;;;;;;;;;;;;15.51;100.00;100081.44;5093498;28;19920;-81
2023/03/30 12:42:14;;;;;;;;;;;;;;;15.63;100.00;100093.47;5091665;28;20047;-82
2023/03/30 12:44:58;;;;;;;;;;;;;;;15.70;100.00;100083.84;5086544;28;19920;-82
2023/03/30 12:47:37;;;;;;;;;;;;;;;15.71;100.00;100090.84;5086105;28;19931;-83
2023/03/30 12:50:12;;;;;;;;;;;;;;;15.68;100.00;100096.47;5086152;28;19983;-82
2023/03/30 12:52:58;;;;;;;;;;;;;;;15.67;100.00;100099.31;5073127;28;20283;-82
2023/03/30 12:55:41;;;;;;;;;;;;;;;15.73;100.00;100094.16;5092426;28;20275;-82
2023/03/30 12:58:12;;;;;;;;;;;;;;;15.81;100.00;100086.22;5071096;28;19931;-82